Time;durP1;ratioP1;P1;durP2;ratioP2;P2;SDS_P1;SDS_P2;PMS_P1;PMS_P2;Temp;Humidity;BMP_temperature;BMP_pressure;BME280_temperature;BME280_humidity;BME280_pressure;Samples;Min_cycle;Max_cycle;Signal;HPM_P1;HPM_P2
2023/10/18 00:02:20;;;;;;;27.33;21.70;;;5.40;99.90;;;;;;5040018;28;20175;-75
2023/10/18 00:04:46;;;;;;;27.25;20.23;;;5.40;99.90;;;;;;5035877;28;20052;-75
2023/10/18 00:07:13;;;;;;;28.02;21.45;;;5.30;99.90;;;;;;5044777;28;20051;-75
2023/10/18 00:09:45;;;;;;;29.73;22.20;;;5.50;99.90;;;;;;5041522;28;20048;-75
2023/10/18 00:12:18;;;;;;;29.52;21.98;;;5.40;99.90;;;;;;5039076;28;20044;-75
2023/10/18 00:14:51;;;;;;;32.47;23.10;;;5.40;99.90;;;;;;5038140;28;20102;-75
2023/10/18 00:17:17;;;;;;;29.52;22.80;;;5.50;99.90;;;;;;5038488;28;20052;-75
2023/10/18 00:19:43;;;;;;;29.52;23.45;;;5.50;99.90;;;;;;5038591;28;20068;-75
2023/10/18 00:22:09;;;;;;;32.83;24.38;;;5.50;99.90;;;;;;5039692;28;20105;-75
2023/10/18 00:24:37;;;;;;;32.65;26.05;;;5.50;99.90;;;;;;5041633;28;20132;-75
2023/10/18 00:27:06;;;;;;;34.22;25.40;;;5.50;99.90;;;;;;5038286;28;21295;-75
2023/10/18 00:29:32;;;;;;;30.83;24.05;;;5.60;99.90;;;;;;5040455;28;20399;-74
2023/10/18 00:31:59;;;;;;;31.98;25.45;;;5.50;99.90;;;;;;5042725;28;20052;-75
2023/10/18 00:34:25;;;;;;;28.80;23.63;;;5.40;99.90;;;;;;5038328;28;20044;-75
2023/10/18 00:36:51;;;;;;;30.85;24.88;;;5.50;99.90;;;;;;5034786;28;20053;-75
2023/10/18 00:39:27;;;;;;;33.28;25.17;;;5.40;99.90;;;;;;5036113;28;20045;-75
2023/10/18 00:42:23;;;;;;;31.55;25.38;;;5.40;99.90;;;;;;5022807;28;20049;-75
2023/10/18 00:44:42;;;;;;;33.63;25.75;;;5.50;99.90;;;;;;5037010;28;20473;-74
2023/10/18 00:47:10;;;;;;;35.60;28.83;;;5.40;99.90;;;;;;5036579;28;20040;-75
2023/10/18 00:49:37;;;;;;;37.60;28.55;;;5.40;99.90;;;;;;5024896;28;20052;-74
2023/10/18 00:52:03;;;;;;;36.33;27.75;;;5.40;99.90;;;;;;5037596;28;20067;-75
2023/10/18 00:54:29;;;;;;;37.95;29.23;;;5.40;99.90;;;;;;5024490;28;20411;-76
2023/10/18 00:56:56;;;;;;;38.05;30.20;;;5.50;99.90;;;;;;5056039;28;20053;-77
2023/10/18 00:59:22;;;;;;;42.72;30.30;;;5.50;99.90;;;;;;5040241;28;20029;-77
2023/10/18 01:01:58;;;;;;;40.28;30.25;;;5.50;99.90;;;;;;5026633;28;20037;-77
2023/10/18 01:04:24;;;;;;;36.83;29.73;;;5.50;99.90;;;;;;5040275;28;20052;-77
2023/10/18 01:06:50;;;;;;;39.60;31.75;;;5.60;99.90;;;;;;5037721;28;20583;-77
2023/10/18 01:09:20;;;;;;;43.85;31.42;;;5.60;99.90;;;;;;5042490;28;20045;-77
2023/10/18 01:11:46;;;;;;;40.90;31.88;;;5.60;99.90;;;;;;5031729;28;20052;-77
2023/10/18 01:14:18;;;;;;;39.63;31.23;;;5.60;99.90;;;;;;5040247;28;20040;-77
2023/10/18 01:16:45;;;;;;;40.08;30.88;;;5.60;99.90;;;;;;5041024;28;20040;-77
2023/10/18 01:19:14;;;;;;;43.35;32.13;;;5.70;99.90;;;;;;5024056;28;20045;-77
2023/10/18 01:21:45;;;;;;;43.22;33.17;;;5.70;99.90;;;;;;5041026;28;20128;-77
2023/10/18 01:24:14;;;;;;;41.38;31.50;;;5.70;99.90;;;;;;5019522;28;20033;-77
2023/10/18 01:26:41;;;;;;;43.30;32.70;;;5.70;99.90;;;;;;5036118;28;20045;-77
2023/10/18 01:29:09;;;;;;;43.97;33.00;;;5.70;99.90;;;;;;5019653;28;20120;-78
2023/10/18 01:31:36;;;;;;;46.75;33.90;;;5.70;99.90;;;;;;5037198;28;20551;-77
2023/10/18 01:34:05;;;;;;;45.33;33.42;;;5.70;99.90;;;;;;5024906;28;20077;-78
2023/10/18 01:36:32;;;;;;;42.72;33.15;;;5.70;99.90;;;;;;5042601;28;20044;-77
2023/10/18 01:38:58;;;;;;;45.15;34.20;;;5.70;99.90;;;;;;5045253;28;20124;-78
2023/10/18 01:41:34;;;;;;;46.67;35.25;;;5.70;99.90;;;;;;5048605;28;20037;-77
2023/10/18 01:44:06;;;;;;;45.65;34.55;;;5.60;99.90;;;;;;5042318;28;20123;-77
2023/10/18 01:46:37;;;;;;;45.20;34.75;;;5.60;99.90;;;;;;5041695;28;20483;-77
2023/10/18 01:49:07;;;;;;;46.03;34.22;;;5.60;99.90;;;;;;5040605;28;20521;-77
2023/10/18 01:51:36;;;;;;;46.70;33.78;;;5.60;99.90;;;;;;5038456;28;20423;-77
2023/10/18 01:54:12;;;;;;;45.85;35.70;;;5.60;99.90;;;;;;5026640;28;20117;-77
2023/10/18 01:56:41;;;;;;;44.53;33.13;;;5.50;99.90;;;;;;5039639;28;20092;-75
2023/10/18 01:59:08;;;;;;;48.85;35.90;;;5.50;99.90;;;;;;5037686;28;20121;-74
2023/10/18 02:01:34;;;;;;;49.03;36.92;;;5.50;99.90;;;;;;5038786;28;20597;-75
2023/10/18 02:04:02;;;;;;;47.97;36.53;;;5.50;99.90;;;;;;5023252;28;20088;-74
2023/10/18 02:06:28;;;;;;;47.78;35.42;;;5.40;99.90;;;;;;5043153;28;20079;-75
2023/10/18 02:08:54;;;;;;;47.50;35.45;;;5.40;99.90;;;;;;5019773;28;20034;-75
2023/10/18 02:11:20;;;;;;;46.05;34.33;;;5.40;99.90;;;;;;5023425;28;20041;-74
2023/10/18 02:13:46;;;;;;;44.97;35.22;;;5.40;99.90;;;;;;5024705;28;20128;-75
2023/10/18 02:16:16;;;;;;;48.50;36.10;;;5.40;99.90;;;;;;5041474;28;20619;-75
2023/10/18 02:18:41;;;;;;;54.00;36.80;;;5.40;99.90;;;;;;5037688;28;20095;-74
2023/10/18 02:21:08;;;;;;;43.63;34.40;;;5.30;99.90;;;;;;5041170;28;20041;-74
2023/10/18 02:23:36;;;;;;;45.40;34.22;;;5.40;99.90;;;;;;5042502;28;20669;-74
2023/10/18 02:26:09;;;;;;;49.03;36.28;;;5.40;99.90;;;;;;5030069;28;20037;-74
2023/10/18 02:28:36;;;;;;;47.33;36.55;;;5.40;99.90;;;;;;5035728;28;20049;-74
2023/10/18 02:33:38;;;;;;;44.45;35.35;;;5.50;99.90;;;;;;5042402;28;20044;-75
2023/10/18 02:37:12;;;;;;;46.35;35.30;;;5.50;99.90;;;;;;5040881;28;20084;-74
2023/10/18 02:39:02;;;;;;;48.42;35.67;;;5.50;99.90;;;;;;5028746;28;20447;-74
2023/10/18 02:41:28;;;;;;;44.35;35.50;;;5.50;99.90;;;;;;5040942;28;20498;-74
2023/10/18 02:43:55;;;;;;;49.72;34.20;;;5.50;99.90;;;;;;5032523;28;20044;-75
2023/10/18 02:46:24;;;;;;;47.35;36.22;;;5.50;99.90;;;;;;5034973;28;20052;-75
2023/10/18 02:48:51;;;;;;;45.10;34.53;;;5.50;99.90;;;;;;5019611;28;20497;-75
2023/10/18 02:51:22;;;;;;;45.05;35.40;;;5.50;99.90;;;;;;5039791;28;20049;-75
2023/10/18 02:54:00;;;;;;;43.80;34.55;;;5.50;99.90;;;;;;5039253;28;20111;-75
2023/10/18 02:56:27;;;;;;;44.45;34.65;;;5.60;99.90;;;;;;5038373;28;20049;-74
2023/10/18 02:59:06;;;;;;;42.72;35.05;;;5.50;99.90;;;;;;5038335;28;20118;-75
2023/10/18 03:01:44;;;;;;;44.25;35.13;;;5.60;99.90;;;;;;5043281;28;20126;-74
2023/10/18 03:04:18;;;;;;;44.60;34.47;;;5.50;99.90;;;;;;5046354;28;20067;-74
2023/10/18 03:06:46;;;;;;;43.90;35.22;;;5.60;99.90;;;;;;5044953;28;20133;-75
2023/10/18 03:11:57;;;;;;;41.67;33.70;;;5.60;99.90;;;;;;5029619;28;20056;-74
2023/10/18 03:14:41;;;;;;;40.17;34.25;;;5.50;99.90;;;;;;5038291;28;20179;-74
2023/10/18 03:17:15;;;;;;;45.85;35.00;;;5.50;99.90;;;;;;5038302;28;20128;-74
2023/10/18 03:19:43;;;;;;;43.55;34.88;;;5.50;99.90;;;;;;5042341;28;20069;-75
2023/10/18 03:22:10;;;;;;;46.00;36.63;;;5.40;99.90;;;;;;5038685;28;20066;-75
2023/10/18 03:24:37;;;;;;;42.13;33.97;;;5.50;99.90;;;;;;5035228;28;20049;-75
2023/10/18 03:27:08;;;;;;;41.08;34.30;;;5.50;99.90;;;;;;5017305;28;20049;-75
2023/10/18 03:29:37;;;;;;;44.22;34.25;;;5.50;99.90;;;;;;5024729;28;20098;-75
2023/10/18 03:32:07;;;;;;;42.13;34.72;;;5.50;99.90;;;;;;5036772;28;20045;-75
2023/10/18 03:34:37;;;;;;;40.92;32.42;;;5.50;99.90;;;;;;5038980;28;20079;-76
2023/10/18 03:37:06;;;;;;;41.25;33.83;;;5.40;99.90;;;;;;5038482;28;20086;-75
2023/10/18 03:39:32;;;;;;;42.42;33.95;;;5.40;99.90;;;;;;5018155;28;20111;-75
2023/10/18 03:42:02;;;;;;;43.17;34.85;;;5.40;99.90;;;;;;5035204;28;20471;-75
2023/10/18 03:44:28;;;;;;;40.33;34.40;;;5.30;99.90;;;;;;5039023;28;20051;-75
2023/10/18 03:49:41;;;;;;;43.63;35.20;;;5.30;99.90;;;;;;5039473;28;20041;-75
2023/10/18 03:55:04;;;;;;;43.00;36.53;;;5.20;99.90;;;;;;5034007;28;20053;-75
2023/10/18 03:57:39;;;;;;;41.88;35.00;;;5.20;99.90;;;;;;5043422;28;20040;-75
2023/10/18 04:03:07;;;;;;;42.33;35.90;;;5.20;99.90;;;;;;5040111;28;20108;-75
2023/10/18 04:08:06;;;;;;;42.65;34.95;;;5.20;99.90;;;;;;5033633;28;20044;-75
2023/10/18 04:10:36;;;;;;;41.55;34.95;;;5.20;99.90;;;;;;5038818;28;20049;-75
2023/10/18 04:13:11;;;;;;;40.58;35.25;;;5.20;99.90;;;;;;5040651;28;20124;-75
2023/10/18 04:15:41;;;;;;;42.47;36.42;;;5.10;99.90;;;;;;5023173;28;20665;-75
2023/10/18 04:20:37;;;;;;;43.97;36.92;;;5.10;99.90;;;;;;5042053;28;19920;-75
2023/10/18 04:23:18;;;;;;;40.97;36.42;;;5.10;99.90;;;;;;5041341;28;20049;-75
2023/10/18 04:26:10;;;;;;;40.08;35.58;;;5.10;99.90;;;;;;5022789;28;20053;-75
2023/10/18 04:28:39;;;;;;;44.47;35.95;;;5.10;99.90;;;;;;5039073;28;20144;-75
2023/10/18 04:31:12;;;;;;;41.72;37.20;;;5.10;99.90;;;;;;5037695;28;20049;-75
2023/10/18 04:33:42;;;;;;;41.75;37.08;;;5.10;99.90;;;;;;5041880;28;20057;-75
2023/10/18 04:36:20;;;;;;;43.13;35.72;;;5.10;99.90;;;;;;5034414;28;20045;-75
2023/10/18 04:38:47;;;;;;;43.30;35.25;;;5.20;99.90;;;;;;5039684;28;20045;-75
2023/10/18 04:41:23;;;;;;;42.28;36.83;;;5.10;99.90;;;;;;5019091;28;20398;-75
2023/10/18 04:43:51;;;;;;;40.15;35.78;;;5.10;99.90;;;;;;5033992;28;20071;-75
2023/10/18 04:46:30;;;;;;;40.55;35.83;;;5.10;99.90;;;;;;5036338;28;20585;-75
2023/10/18 04:54:18;;;;;;;41.55;36.63;;;5.10;99.90;;;;;;5036458;28;20115;-75
2023/10/18 04:56:46;;;;;;;42.60;37.58;;;5.10;99.90;;;;;;5028359;28;20044;-75
2023/10/18 05:04:37;;;;;;;40.42;36.10;;;5.10;99.90;;;;;;5036928;28;20045;-75
2023/10/18 05:09:45;;;;;;;44.13;36.70;;;5.10;99.90;;;;;;5039250;28;20233;-75
2023/10/18 05:17:42;;;;;;;40.35;35.67;;;5.10;99.90;;;;;;5055963;28;20052;-75
2023/10/18 05:22:44;;;;;;;43.22;37.17;;;5.10;99.90;;;;;;5035284;28;20532;-75
2023/10/18 05:28:09;;;;;;;41.30;36.60;;;5.10;99.90;;;;;;5045150;28;20403;-75
2023/10/18 05:33:47;;;;;;;41.28;36.90;;;5.10;99.90;;;;;;5043218;28;20041;-75
2023/10/18 05:43:52;;;;;;;40.70;35.35;;;5.10;99.90;;;;;;5041319;28;20048;-77
2023/10/18 05:46:20;;;;;;;39.65;35.35;;;5.10;99.90;;;;;;5040744;28;20040;-76
2023/10/18 05:48:46;;;;;;;40.95;36.17;;;5.20;99.90;;;;;;5041406;28;20442;-76
2023/10/18 05:53:50;;;;;;;41.92;35.80;;;5.10;99.90;;;;;;5037561;28;20056;-74
2023/10/18 05:56:20;;;;;;;38.78;34.63;;;5.10;99.90;;;;;;5039504;28;20045;-74
2023/10/18 05:58:46;;;;;;;41.05;36.58;;;5.10;99.90;;;;;;5025858;28;20092;-74
2023/10/18 06:01:13;;;;;;;40.67;36.28;;;5.10;99.90;;;;;;5041223;28;20332;-74
2023/10/18 06:03:39;;;;;;;39.22;35.05;;;5.10;99.90;;;;;;5038312;28;20095;-75
2023/10/18 06:06:08;;;;;;;41.50;35.33;;;5.10;99.90;;;;;;5042806;28;20537;-75
2023/10/18 06:08:34;;;;;;;37.83;33.72;;;5.10;99.90;;;;;;5037907;28;20499;-75
2023/10/18 06:11:06;;;;;;;38.92;34.75;;;5.10;99.90;;;;;;5042721;28;20048;-75
2023/10/18 06:13:40;;;;;;;39.72;34.90;;;5.10;99.90;;;;;;5027416;28;20114;-75
2023/10/18 06:16:18;;;;;;;40.28;36.08;;;5.10;99.90;;;;;;5025707;28;20067;-75
2023/10/18 06:18:48;;;;;;;39.65;35.47;;;5.10;99.90;;;;;;5039788;28;20045;-75
2023/10/18 06:21:20;;;;;;;38.13;33.65;;;5.10;99.90;;;;;;5026768;28;20121;-75
2023/10/18 06:23:55;;;;;;;38.13;34.08;;;5.10;99.90;;;;;;5039337;28;20222;-75
2023/10/18 06:26:28;;;;;;;38.95;34.75;;;5.10;99.90;;;;;;5039860;28;20139;-74
2023/10/18 06:29:11;;;;;;;40.47;34.85;;;5.20;99.90;;;;;;5033588;28;20048;-74
2023/10/18 06:31:46;;;;;;;41.33;36.83;;;5.20;99.90;;;;;;5060804;28;20776;-74
2023/10/18 06:34:18;;;;;;;39.30;34.95;;;5.20;99.90;;;;;;5039117;28;20053;-74
2023/10/18 06:36:52;;;;;;;38.97;33.47;;;5.20;99.90;;;;;;5041976;28;20041;-74
2023/10/18 06:39:25;;;;;;;38.67;33.92;;;5.20;99.90;;;;;;5055696;28;20881;-74
2023/10/18 06:41:57;;;;;;;38.97;34.88;;;5.20;99.90;;;;;;5026151;28;20048;-74
2023/10/18 06:44:30;;;;;;;38.08;32.72;;;5.30;99.90;;;;;;5042983;28;20111;-75
2023/10/18 06:46:57;;;;;;;35.78;32.05;;;5.30;99.90;;;;;;5038351;28;20651;-74
2023/10/18 06:49:26;;;;;;;37.10;33.30;;;5.20;99.90;;;;;;5043926;28;20041;-74
2023/10/18 06:51:52;;;;;;;36.10;31.33;;;5.30;99.90;;;;;;5039554;28;20059;-74
2023/10/18 06:54:38;;;;;;;37.00;33.00;;;5.40;99.90;;;;;;5028700;28;20048;-74
2023/10/18 06:57:18;;;;;;;36.78;32.88;;;5.40;99.90;;;;;;5039720;28;20099;-75
2023/10/18 06:59:48;;;;;;;35.33;31.73;;;5.40;99.90;;;;;;5041690;28;20064;-75
2023/10/18 07:02:14;;;;;;;35.67;31.88;;;5.40;99.90;;;;;;5040906;28;20072;-74
2023/10/18 07:04:51;;;;;;;34.25;30.65;;;5.50;99.90;;;;;;5026034;28;20037;-74
2023/10/18 07:07:20;;;;;;;35.90;32.13;;;5.50;99.90;;;;;;5039077;28;20052;-74
2023/10/18 07:09:52;;;;;;;35.05;31.38;;;5.50;99.90;;;;;;5055853;28;20100;-74
2023/10/18 07:12:19;;;;;;;35.30;31.55;;;5.60;99.90;;;;;;5039652;28;20053;-74
2023/10/18 07:14:46;;;;;;;32.08;28.60;;;5.60;99.90;;;;;;5027334;28;20689;-74
2023/10/18 07:17:15;;;;;;;35.67;31.77;;;5.60;99.90;;;;;;5023889;28;20052;-74
2023/10/18 07:19:47;;;;;;;34.78;31.10;;;5.60;99.90;;;;;;5039580;28;20077;-74
2023/10/18 07:23:01;;;;;;;34.85;31.15;;;5.60;99.90;;;;;;5042700;28;20612;-74
2023/10/18 07:25:01;;;;;;;34.97;31.23;;;5.70;99.90;;;;;;5043406;28;20262;-73
2023/10/18 07:27:30;;;;;;;35.55;31.67;;;5.70;99.90;;;;;;5024326;28;20041;-74
2023/10/18 07:30:00;;;;;;;33.45;29.95;;;5.70;99.90;;;;;;5041768;28;20498;-74
2023/10/18 07:32:28;;;;;;;34.58;30.98;;;5.70;99.90;;;;;;5041622;28;20142;-74
2023/10/18 07:34:57;;;;;;;33.60;30.10;;;5.70;99.90;;;;;;5025124;28;20118;-74
2023/10/18 07:37:24;;;;;;;32.60;29.10;;;5.70;99.90;;;;;;5057647;28;20187;-74
2023/10/18 07:40:04;;;;;;;34.05;30.02;;;5.80;99.90;;;;;;5022341;28;20044;-74
2023/10/18 07:42:51;;;;;;;34.13;30.48;;;5.80;99.90;;;;;;5035575;28;20080;-74
2023/10/18 07:45:19;;;;;;;33.80;30.27;;;5.90;99.90;;;;;;5022770;28;20080;-74
2023/10/18 07:47:45;;;;;;;32.90;29.48;;;5.90;99.90;;;;;;5022971;28;20033;-75
2023/10/18 07:52:55;;;;;;;32.03;28.55;;;6.00;99.90;;;;;;5037647;28;20057;-75
2023/10/18 07:55:21;;;;;;;30.83;27.70;;;6.00;99.90;;;;;;5057782;28;20067;-75
2023/10/18 07:57:48;;;;;;;32.35;28.88;;;6.10;99.90;;;;;;5039777;28;20048;-75
2023/10/18 08:00:26;;;;;;;31.65;28.38;;;6.10;99.90;;;;;;5039628;28;20140;-75
2023/10/18 08:02:52;;;;;;;29.73;25.85;;;6.20;99.90;;;;;;5035021;28;20048;-76
2023/10/18 08:05:21;;;;;;;29.10;26.15;;;6.20;99.90;;;;;;5041716;28;20045;-76
2023/10/18 08:07:55;;;;;;;29.90;26.80;;;6.20;99.90;;;;;;5038592;28;20372;-76
2023/10/18 08:10:21;;;;;;;32.13;28.20;;;6.30;99.90;;;;;;5042161;28;20048;-75
2023/10/18 08:13:03;;;;;;;31.17;27.33;;;6.30;99.90;;;;;;5022020;28;20443;-76
2023/10/18 08:15:35;;;;;;;27.50;24.63;;;6.40;99.90;;;;;;5023548;28;20041;-75
2023/10/18 08:18:14;;;;;;;28.55;25.55;;;6.50;99.90;;;;;;5035022;28;20562;-75
2023/10/18 08:26:03;;;;;;;26.20;23.33;;;6.70;99.90;;;;;;5051552;28;20049;-75
2023/10/18 08:28:40;;;;;;;30.75;23.67;;;6.70;99.90;;;;;;5029054;28;20056;-75
2023/10/18 08:31:35;;;;;;;24.80;22.00;;;6.80;99.90;;;;;;5038265;28;20047;-76
2023/10/18 08:34:15;;;;;;;24.48;21.88;;;6.90;99.90;;;;;;5039326;28;20040;-76
2023/10/18 08:37:02;;;;;;;23.25;20.75;;;7.00;99.90;;;;;;5018360;28;20199;-74
2023/10/18 08:39:28;;;;;;;23.10;20.70;;;7.00;99.90;;;;;;5034228;28;20319;-74
2023/10/18 08:42:05;;;;;;;23.13;20.65;;;7.10;99.90;;;;;;5037958;28;20071;-74
2023/10/18 08:44:35;;;;;;;23.52;21.02;;;7.10;99.90;;;;;;5059374;28;20053;-74
2023/10/18 08:49:53;;;;;;;21.15;18.85;;;7.30;99.90;;;;;;5041697;28;20060;-75
2023/10/18 08:52:20;;;;;;;21.42;19.33;;;7.40;99.90;;;;;;5057859;28;20077;-75
2023/10/18 08:54:48;;;;;;;21.45;19.25;;;7.40;99.90;;;;;;5026742;28;20052;-75
2023/10/18 08:57:34;;;;;;;20.63;18.52;;;7.50;99.90;;;;;;5059258;28;20107;-74
2023/10/18 09:02:53;;;;;;;20.55;18.45;;;7.60;99.90;;;;;;5036954;28;20064;-75
2023/10/18 09:05:22;;;;;;;20.33;18.23;;;7.70;99.90;;;;;;5042805;28;20709;-75
2023/10/18 09:07:59;;;;;;;19.88;17.85;;;7.70;99.90;;;;;;5043296;28;20040;-75
2023/10/18 09:16:01;;;;;;;19.20;17.25;;;7.90;99.90;;;;;;5042166;28;20105;-75
2023/10/18 09:18:30;;;;;;;20.05;17.83;;;7.90;99.90;;;;;;5042677;28;21167;-75
2023/10/18 09:23:42;;;;;;;19.38;17.33;;;8.00;99.90;;;;;;5040459;28;20411;-75
2023/10/18 09:26:13;;;;;;;19.23;17.23;;;8.00;99.90;;;;;;5039472;28;20045;-77
2023/10/18 09:28:44;;;;;;;18.00;16.10;;;8.10;99.90;;;;;;5041388;28;20076;-77
2023/10/18 09:31:21;;;;;;;19.23;17.25;;;8.20;99.90;;;;;;5043942;28;20056;-75
2023/10/18 09:33:50;;;;;;;19.67;17.17;;;8.10;99.90;;;;;;5039220;28;20304;-76
2023/10/18 09:36:20;;;;;;;17.75;15.98;;;8.30;99.90;;;;;;5044822;28;20043;-75
2023/10/18 09:38:47;;;;;;;18.35;16.42;;;8.30;99.90;;;;;;5022968;28;20037;-74
2023/10/18 09:41:14;;;;;;;17.25;15.55;;;8.40;99.90;;;;;;5027627;28;20400;-74
2023/10/18 09:43:40;;;;;;;18.08;15.40;;;8.40;99.90;;;;;;5026612;28;21236;-75
2023/10/18 09:46:07;;;;;;;18.17;16.25;;;8.50;99.90;;;;;;5042747;28;20049;-74
2023/10/18 09:48:41;;;;;;;19.80;16.45;;;8.50;99.90;;;;;;5026304;28;20529;-75
2023/10/18 09:51:08;;;;;;;16.45;14.75;;;8.60;99.90;;;;;;5038429;28;20429;-75
2023/10/18 09:53:44;;;;;;;15.98;14.40;;;8.60;99.90;;;;;;5029365;28;20040;-75
2023/10/18 09:56:12;;;;;;;16.17;14.48;;;8.70;99.90;;;;;;5023805;28;20048;-75
2023/10/18 09:58:50;;;;;;;16.70;14.90;;;8.80;99.90;;;;;;5028029;28;20052;-74
2023/10/18 10:01:27;;;;;;;15.65;13.85;;;8.80;99.90;;;;;;5039994;28;20039;-75
2023/10/18 10:03:56;;;;;;;15.80;13.85;;;8.90;99.90;;;;;;5044750;28;20044;-75
2023/10/18 10:06:26;;;;;;;15.70;14.13;;;8.90;99.90;;;;;;5039101;28;20053;-75
2023/10/18 10:09:15;;;;;;;16.65;13.38;;;9.00;99.90;;;;;;5043237;28;20402;-75
2023/10/18 10:11:45;;;;;;;17.17;13.85;;;9.10;99.90;;;;;;5039871;28;20049;-74
2023/10/18 10:14:16;;;;;;;15.50;13.70;;;9.10;99.90;;;;;;5032132;28;20041;-75
2023/10/18 10:17:05;;;;;;;14.32;12.90;;;9.20;99.90;;;;;;5037210;28;20080;-75
2023/10/18 10:19:46;;;;;;;15.13;13.52;;;9.30;99.90;;;;;;5040567;28;20071;-75
2023/10/18 10:22:15;;;;;;;14.45;13.05;;;9.30;99.90;;;;;;5022513;28;20068;-74
2023/10/18 10:24:42;;;;;;;14.38;12.88;;;9.40;99.90;;;;;;5042577;28;20136;-74
2023/10/18 10:27:27;;;;;;;14.80;11.90;;;9.40;99.90;;;;;;5057292;28;20087;-75
2023/10/18 10:30:03;;;;;;;14.88;13.00;;;9.50;99.90;;;;;;5035050;28;20045;-75
2023/10/18 10:32:30;;;;;;;16.70;12.30;;;9.50;99.90;;;;;;5042772;28;20759;-75
2023/10/18 10:35:15;;;;;;;15.50;13.68;;;9.60;99.90;;;;;;5039603;28;20048;-75
2023/10/18 10:37:48;;;;;;;13.45;12.05;;;9.60;99.90;;;;;;5023599;28;20399;-78
2023/10/18 10:40:36;;;;;;;15.02;13.45;;;9.70;99.90;;;;;;5054008;28;20479;-75
2023/10/18 10:43:04;;;;;;;13.60;12.07;;;9.70;99.90;;;;;;5039445;28;20056;-75
2023/10/18 10:45:43;;;;;;;13.63;12.18;;;9.80;99.90;;;;;;5040307;28;20092;-75
2023/10/18 10:48:18;;;;;;;12.60;11.27;;;9.80;99.90;;;;;;5034321;28;20049;-75
2023/10/18 10:50:50;;;;;;;13.93;12.38;;;9.90;99.90;;;;;;5040287;28;20037;-75
2023/10/18 10:53:43;;;;;;;14.25;12.80;;;9.90;99.90;;;;;;5037237;28;20053;-75
2023/10/18 10:56:26;;;;;;;13.77;12.23;;;9.90;99.90;;;;;;5022044;28;20052;-75
2023/10/18 10:59:17;;;;;;;12.82;11.02;;;9.90;99.90;;;;;;5037999;28;20594;-76
2023/10/18 11:04:27;;;;;;;13.30;11.90;;;10.00;99.90;;;;;;5041328;28;20051;-75
2023/10/18 11:06:57;;;;;;;12.88;11.55;;;10.00;99.90;;;;;;5025270;28;20063;-75
2023/10/18 11:09:51;;;;;;;14.40;12.50;;;10.00;99.90;;;;;;5043178;28;20110;-75
2023/10/18 11:12:18;;;;;;;14.85;11.43;;;10.00;99.90;;;;;;5040337;28;20964;-75
2023/10/18 11:14:50;;;;;;;13.40;12.00;;;10.10;99.90;;;;;;5039631;28;20502;-76
2023/10/18 11:19:53;;;;;;;13.32;11.93;;;10.10;99.90;;;;;;5042058;28;20057;-75
2023/10/18 11:22:29;;;;;;;12.88;11.57;;;10.20;99.90;;;;;;5027496;28;20102;-73
2023/10/18 11:24:59;;;;;;;15.70;11.88;;;10.20;99.90;;;;;;5019791;28;20519;-74
2023/10/18 11:27:33;;;;;;;12.45;11.02;;;10.20;99.90;;;;;;5040754;28;20103;-74
2023/10/18 11:32:48;;;;;;;14.07;11.40;;;10.30;99.90;;;;;;5038703;28;20382;-76
2023/10/18 11:35:26;;;;;;;12.70;11.35;;;10.40;99.90;;;;;;5038659;28;20053;-74
2023/10/18 11:37:52;;;;;;;11.82;10.63;;;10.50;99.90;;;;;;5037936;28;20044;-74
2023/10/18 11:40:29;;;;;;;12.23;10.93;;;10.50;99.90;;;;;;5040062;28;20112;-75
2023/10/18 11:43:08;;;;;;;13.63;11.20;;;10.60;99.90;;;;;;5021896;28;20049;-74
2023/10/18 11:45:38;;;;;;;12.40;11.10;;;10.60;99.90;;;;;;5036610;28;20044;-75
2023/10/18 11:48:11;;;;;;;10.27;9.20;;;10.70;99.90;;;;;;5040903;28;20057;-74
2023/10/18 11:50:47;;;;;;;12.50;10.15;;;10.70;99.90;;;;;;5036451;28;20674;-74
2023/10/18 11:53:15;;;;;;;11.82;9.40;;;10.70;99.90;;;;;;5041669;28;20041;-75
2023/10/18 11:55:59;;;;;;;10.75;9.55;;;10.70;99.90;;;;;;5039459;28;20083;-75
2023/10/18 11:58:27;;;;;;;10.85;9.75;;;10.70;99.90;;;;;;5036641;28;20045;-76
2023/10/18 12:01:06;;;;;;;9.98;8.98;;;10.80;99.90;;;;;;5023920;28;20517;-73
2023/10/18 12:03:38;;;;;;;11.32;9.00;;;10.80;99.90;;;;;;5040443;28;20045;-74
2023/10/18 12:06:04;;;;;;;11.85;9.20;;;10.80;99.90;;;;;;5039705;28;20053;-75
2023/10/18 12:08:47;;;;;;;13.05;9.50;;;10.80;99.90;;;;;;5022887;28;20132;-75
2023/10/18 12:11:14;;;;;;;11.77;9.55;;;10.90;99.90;;;;;;5037915;28;20053;-75
2023/10/18 12:13:41;;;;;;;10.30;9.20;;;10.90;99.90;;;;;;5053331;28;20079;-75
2023/10/18 12:16:08;;;;;;;10.50;8.98;;;10.90;99.90;;;;;;5015091;28;20459;-74
2023/10/18 12:18:35;;;;;;;11.60;9.27;;;10.90;99.90;;;;;;5023802;28;20561;-74
2023/10/18 12:21:05;;;;;;;11.88;9.55;;;11.00;99.90;;;;;;5032160;28;20042;-74
2023/10/18 12:23:31;;;;;;;12.48;9.77;;;11.00;99.90;;;;;;5036996;28;20044;-74
2023/10/18 12:25:59;;;;;;;11.18;9.50;;;10.90;99.90;;;;;;5036190;28;20126;-74
2023/10/18 12:28:37;;;;;;;10.27;9.10;;;10.90;99.90;;;;;;5023201;28;20067;-74
2023/10/18 12:31:12;;;;;;;13.02;9.95;;;10.90;99.90;;;;;;5035282;28;20152;-74
2023/10/18 12:33:40;;;;;;;10.43;9.25;;;10.90;99.90;;;;;;5022034;28;20045;-74
2023/10/18 12:36:08;;;;;;;10.88;9.68;;;10.90;99.90;;;;;;5021557;28;20132;-75
2023/10/18 12:38:37;;;;;;;10.68;9.57;;;10.90;99.90;;;;;;5051756;28;20431;-74
2023/10/18 12:43:44;;;;;;;10.90;9.75;;;10.90;99.90;;;;;;5036730;28;20057;-74
2023/10/18 12:46:16;;;;;;;13.70;10.57;;;10.90;99.90;;;;;;5038003;28;20067;-74
2023/10/18 12:48:43;;;;;;;12.65;10.40;;;10.90;99.90;;;;;;5036217;28;20103;-75
2023/10/18 12:51:12;;;;;;;11.20;10.10;;;11.00;99.90;;;;;;5024344;28;21819;-75
2023/10/18 12:53:59;;;;;;;10.52;9.45;;;11.00;99.90;;;;;;5032946;28;20056;-75
2023/10/18 13:01:42;;;;;;;10.98;9.77;;;11.10;99.90;;;;;;5040755;28;20053;-75
2023/10/18 13:04:08;;;;;;;10.52;9.43;;;11.10;99.90;;;;;;5038302;28;20060;-75
2023/10/18 13:06:35;;;;;;;12.10;10.07;;;11.20;99.90;;;;;;5034534;28;20041;-75
2023/10/18 13:09:29;;;;;;;12.32;10.45;;;11.20;99.90;;;;;;5041529;28;20041;-75
2023/10/18 13:12:00;;;;;;;11.25;10.02;;;11.20;99.90;;;;;;5039363;28;20037;-75
2023/10/18 13:14:29;;;;;;;13.15;10.27;;;11.30;99.90;;;;;;5023413;28;20107;-75
2023/10/18 13:16:56;;;;;;;12.32;9.80;;;11.30;99.90;;;;;;5034797;28;20037;-75
2023/10/18 13:19:25;;;;;;;12.48;10.85;;;11.30;99.90;;;;;;5058036;28;20116;-74
2023/10/18 13:21:51;;;;;;;11.32;10.05;;;11.40;99.90;;;;;;5036115;28;20050;-75
2023/10/18 13:24:17;;;;;;;14.77;10.13;;;11.40;99.90;;;;;;5039469;28;20103;-75
2023/10/18 13:26:44;;;;;;;12.30;10.13;;;11.30;99.90;;;;;;5019499;28;20072;-75
2023/10/18 13:31:45;;;;;;;11.18;9.85;;;11.40;99.90;;;;;;5050844;28;20571;-76
2023/10/18 13:34:18;;;;;;;11.85;10.52;;;11.50;99.90;;;;;;5038343;28;20504;-76
2023/10/18 13:36:48;;;;;;;12.90;9.77;;;11.60;99.90;;;;;;5042441;28;20679;-76
2023/10/18 13:39:16;;;;;;;11.15;9.68;;;11.60;99.90;;;;;;5027081;28;20043;-76
2023/10/18 13:41:49;;;;;;;11.52;9.68;;;11.60;99.90;;;;;;5040135;28;20053;-76
2023/10/18 13:44:20;;;;;;;11.45;10.00;;;11.60;99.90;;;;;;5044105;28;20410;-76
2023/10/18 13:46:47;;;;;;;11.88;10.50;;;11.50;99.90;;;;;;5039393;28;20134;-76
2023/10/18 13:49:17;;;;;;;14.57;10.73;;;11.50;99.90;;;;;;5059516;28;20056;-76
2023/10/18 13:51:43;;;;;;;12.70;9.93;;;11.40;99.90;;;;;;5021901;28;20056;-76
2023/10/18 13:54:09;;;;;;;11.73;10.23;;;11.30;99.90;;;;;;5039749;28;20463;-75
2023/10/18 13:56:35;;;;;;;11.95;10.60;;;11.30;99.90;;;;;;5041136;28;20037;-76
2023/10/18 13:59:01;;;;;;;12.77;10.52;;;11.20;99.90;;;;;;5030250;28;20485;-76
2023/10/18 14:01:28;;;;;;;13.43;10.60;;;11.20;99.90;;;;;;5041748;28;20526;-76
2023/10/18 14:03:55;;;;;;;12.88;10.32;;;11.10;99.90;;;;;;5059405;28;20059;-76
2023/10/18 14:06:21;;;;;;;13.77;10.25;;;11.10;99.90;;;;;;5028411;28;20435;-76
2023/10/18 14:08:47;;;;;;;14.07;10.60;;;11.10;99.90;;;;;;5049281;28;20049;-76
2023/10/18 14:11:14;;;;;;;13.93;10.68;;;11.00;99.90;;;;;;5014340;28;20038;-76
2023/10/18 14:13:44;;;;;;;14.48;12.00;;;11.00;99.90;;;;;;5043223;28;20092;-76
2023/10/18 14:16:17;;;;;;;14.70;10.95;;;11.00;99.90;;;;;;5038154;28;20057;-76
2023/10/18 14:18:46;;;;;;;14.18;10.85;;;11.00;99.90;;;;;;5041177;28;20114;-76
2023/10/18 14:21:12;;;;;;;14.57;11.73;;;11.00;99.90;;;;;;5045096;28;20053;-76
2023/10/18 14:23:40;;;;;;;15.02;11.50;;;11.00;99.90;;;;;;5041433;28;20119;-75
2023/10/18 14:26:05;;;;;;;16.48;11.65;;;11.00;99.90;;;;;;5017903;28;20126;-76
2023/10/18 14:28:34;;;;;;;15.38;11.75;;;11.00;99.90;;;;;;5040809;28;20045;-76
2023/10/18 14:31:02;;;;;;;17.85;12.15;;;11.00;99.90;;;;;;5044140;28;20134;-76
2023/10/18 14:33:31;;;;;;;15.25;12.05;;;11.00;99.90;;;;;;5040461;28;20049;-76